createdAt,value
2022-12-16T00:00:08.954Z,93521.19
2022-12-16T00:01:14.563Z,93534.47
2022-12-16T00:02:11.166Z,93544.88
2022-12-16T00:03:07.956Z,93545.34
2022-12-16T00:04:04.722Z,93544.69
2022-12-16T00:05:01.429Z,93498.97
2022-12-16T00:05:58.157Z,93539.41
2022-12-16T00:06:54.882Z,93511.78
2022-12-16T00:07:51.508Z,93541.66
2022-12-16T00:08:48.650Z,93497.56
2022-12-16T00:09:45.424Z,93504.88
2022-12-16T00:10:55.020Z,93544.97
2022-12-16T00:11:51.793Z,93542.34
2022-12-16T00:12:48.409Z,93523.78
2022-12-16T00:13:45.186Z,93549.41
2022-12-16T00:14:41.891Z,93549.16
2022-12-16T00:15:38.485Z,93546.59
2022-12-16T00:16:35.238Z,93551.19
2022-12-16T00:17:32.173Z,93541.97
2022-12-16T00:18:28.884Z,93541.13
2022-12-16T00:19:25.614Z,93548.53
2022-12-16T00:20:22.326Z,93529.78
2022-12-16T00:21:20.283Z,93550.22
2022-12-16T00:22:17.057Z,93544.97
2022-12-16T00:23:14.628Z,93557.13
2022-12-16T00:24:11.344Z,93557.53
2022-12-16T00:25:08.588Z,93550.72
2022-12-16T00:26:05.728Z,93548.38
2022-12-16T00:27:02.915Z,93538.25
2022-12-16T00:28:00.529Z,93541.91
2022-12-16T00:28:58.272Z,93546.63
2022-12-16T00:29:54.956Z,93543.59
2022-12-16T00:30:55.252Z,93542.81
2022-12-16T00:31:52.309Z,93546.41
2022-12-16T00:32:50.487Z,93549.53
2022-12-16T00:33:47.133Z,93548.28
2022-12-16T00:34:43.808Z,93551.16
2022-12-16T00:35:44.525Z,93557.16
2022-12-16T00:36:43.918Z,93548.75
2022-12-16T00:37:40.647Z,93551.41
2022-12-16T00:38:38.010Z,93527.53
2022-12-16T00:39:34.619Z,93516.59
2022-12-16T00:40:31.348Z,93546.50
2022-12-16T00:41:27.959Z,93545.69
2022-12-16T00:42:24.562Z,93508.22
2022-12-16T00:43:21.304Z,93543.59
2022-12-16T00:44:18.027Z,93540.19
2022-12-16T00:45:14.852Z,93550.97
2022-12-16T00:46:11.564Z,93548.53
2022-12-16T00:47:08.213Z,93547.72
2022-12-16T00:48:05.387Z,93553.63
2022-12-16T00:49:02.067Z,93540.84
2022-12-16T00:49:58.684Z,93543.13
2022-12-16T00:50:55.999Z,93548.09
2022-12-16T00:51:52.609Z,93550.44
2022-12-16T00:52:49.687Z,93539.19
2022-12-16T00:53:47.295Z,93543.22
2022-12-16T00:54:43.897Z,93540.84
2022-12-16T00:55:40.634Z,93543.88
2022-12-16T00:56:37.406Z,93543.41
2022-12-16T00:57:34.511Z,93544.97
2022-12-16T00:58:31.175Z,93544.59
2022-12-16T00:59:27.776Z,93543.50
2022-12-16T01:00:24.738Z,93546.63
2022-12-16T01:01:21.550Z,93542.44
2022-12-16T01:02:18.497Z,93546.13
2022-12-16T01:03:19.615Z,93543.97
2022-12-16T01:04:18.303Z,93538.72
2022-12-16T01:05:17.202Z,93538.16
2022-12-16T01:06:17.872Z,93528.25
2022-12-16T01:07:14.452Z,93530.16
2022-12-16T01:08:11.096Z,93531.13
2022-12-16T01:09:08.751Z,93542.53
2022-12-16T01:10:07.536Z,93540.09
2022-12-16T01:11:05.835Z,93542.13
2022-12-16T01:12:02.578Z,93535.00
2022-12-16T01:12:59.296Z,93528.94
2022-12-16T01:13:55.904Z,93533.13
2022-12-16T01:14:52.584Z,93522.41
2022-12-16T01:15:50.598Z,93517.91
2022-12-16T01:16:47.308Z,93518.47
2022-12-16T01:17:44.193Z,93524.59
2022-12-16T01:18:40.808Z,93533.91
2022-12-16T01:19:37.412Z,93532.66
2022-12-16T01:20:34.567Z,93509.38
2022-12-16T01:21:31.247Z,93539.97
2022-12-16T01:22:32.784Z,93538.88
2022-12-16T01:23:29.672Z,93536.53
2022-12-16T01:24:26.657Z,93534.50
2022-12-16T01:25:23.238Z,93536.69
2022-12-16T01:26:20.095Z,93524.28
2022-12-16T01:27:17.124Z,93526.13
2022-12-16T01:28:13.924Z,93524.91
2022-12-16T01:29:10.571Z,93519.47
2022-12-16T01:30:09.346Z,93515.88
2022-12-16T01:31:05.984Z,93514.19
2022-12-16T01:32:02.876Z,93510.91
2022-12-16T01:32:59.483Z,93509.53
2022-12-16T01:33:56.277Z,93507.38
2022-12-16T01:34:54.971Z,93510.16
2022-12-16T01:36:02.434Z,93510.94
2022-12-16T01:36:59.166Z,93508.75
2022-12-16T01:37:56.350Z,93506.72
2022-12-16T01:38:53.032Z,93506.41
2022-12-16T01:39:49.782Z,93501.13
2022-12-16T01:40:47.200Z,93507.50
2022-12-16T01:41:43.866Z,93502.53
2022-12-16T01:42:40.585Z,93499.44
2022-12-16T01:43:39.016Z,93501.28
2022-12-16T01:44:35.764Z,93512.78
2022-12-16T01:45:35.799Z,93516.31
2022-12-16T01:46:32.784Z,93509.00
2022-12-16T01:47:32.734Z,93476.84
2022-12-16T01:48:39.636Z,93505.28
2022-12-16T01:49:59.275Z,93511.31
2022-12-16T01:51:02.075Z,93509.41
2022-12-16T01:52:02.865Z,93503.78
2022-12-16T01:53:04.661Z,93508.28
2022-12-16T01:54:24.301Z,93505.78
2022-12-16T01:55:49.620Z,93510.28
2022-12-16T01:56:53.825Z,93486.06
2022-12-16T01:57:56.195Z,93481.06
2022-12-16T01:58:54.765Z,93483.78
2022-12-16T01:59:54.093Z,93503.72
2022-12-16T02:00:51.176Z,93509.50
2022-12-16T02:01:48.077Z,93506.06
2022-12-16T02:02:47.098Z,93479.13
2022-12-16T02:03:44.585Z,93456.91
2022-12-16T02:05:01.124Z,93481.03
2022-12-16T02:05:59.281Z,93505.50
2022-12-16T02:06:56.765Z,93478.94
2022-12-16T02:08:07.668Z,93508.00
2022-12-16T02:09:10.849Z,93504.31
2022-12-16T02:10:08.441Z,93495.47
2022-12-16T02:11:12.488Z,93479.78
2022-12-16T02:12:14.795Z,93504.09
2022-12-16T02:13:41.238Z,93498.94
2022-12-16T02:14:45.697Z,93489.84
2022-12-16T02:16:16.656Z,93482.38
2022-12-16T02:17:36.998Z,93480.22
2022-12-16T02:19:11.135Z,93479.63
2022-12-16T02:20:45.449Z,93479.16
2022-12-16T02:21:41.887Z,93473.53
2022-12-16T02:23:12.255Z,93465.38
2022-12-16T02:24:47.068Z,93474.44
2022-12-16T02:25:58.744Z,93480.31
2022-12-16T02:27:17.866Z,93476.28
2022-12-16T02:28:29.708Z,93478.00
2022-12-16T02:29:26.299Z,93480.47
2022-12-16T02:30:51.744Z,93480.31
2022-12-16T02:32:05.674Z,93483.75
2022-12-16T02:33:22.332Z,93486.25
2022-12-16T02:34:23.737Z,93488.84
2022-12-16T02:35:36.315Z,93478.16
2022-12-16T02:36:51.084Z,93481.72
2022-12-16T02:37:59.638Z,93483.75
2022-12-16T02:39:00.825Z,93482.34
2022-12-16T02:40:03.193Z,93482.31
2022-12-16T02:41:15.838Z,93479.38
2022-12-16T02:42:19.521Z,93474.28
2022-12-16T02:43:21.515Z,93485.00
2022-12-16T02:44:20.003Z,93484.97
2022-12-16T02:45:20.955Z,93478.94
2022-12-16T02:46:19.295Z,93493.53
2022-12-16T02:47:16.055Z,93493.19
2022-12-16T02:48:12.679Z,93500.84
2022-12-16T02:49:29.245Z,93503.59
2022-12-16T02:50:35.149Z,93508.91
2022-12-16T02:51:34.908Z,93510.28
2022-12-16T02:52:34.535Z,93512.47
2022-12-16T02:53:34.821Z,93527.38
2022-12-16T02:54:31.944Z,93527.50
2022-12-16T02:55:43.698Z,93519.28
2022-12-16T02:56:40.405Z,93515.03
2022-12-16T02:57:37.018Z,93512.81
2022-12-16T02:58:43.658Z,93515.47
2022-12-16T03:00:07.171Z,93516.19
2022-12-16T03:01:14.431Z,93514.56
2022-12-16T03:02:14.310Z,93507.41
2022-12-16T03:03:21.633Z,93520.34
2022-12-16T03:04:30.557Z,93512.47
2022-12-16T03:05:34.095Z,93515.88
2022-12-16T03:06:33.872Z,93512.91
2022-12-16T03:07:33.956Z,93505.59
2022-12-16T03:08:36.609Z,93509.50
2022-12-16T03:09:35.027Z,93498.81
2022-12-16T03:10:37.616Z,93496.47
2022-12-16T03:11:35.145Z,93497.56
2022-12-16T03:12:34.070Z,93498.66
2022-12-16T03:13:36.300Z,93502.69
2022-12-16T03:14:36.916Z,93503.78
2022-12-16T03:15:35.208Z,93514.63
2022-12-16T03:16:33.369Z,93503.16
2022-12-16T03:17:30.563Z,93489.63
2022-12-16T03:18:27.858Z,93515.72
2022-12-16T03:19:26.606Z,93516.81
2022-12-16T03:20:35.967Z,93515.25
2022-12-16T03:21:39.674Z,93503.75
2022-12-16T03:22:40.078Z,93475.31
2022-12-16T03:23:53.327Z,93509.75
2022-12-16T03:24:50.185Z,93493.03
2022-12-16T03:25:50.346Z,93491.63
2022-12-16T03:26:59.658Z,93480.78
2022-12-16T03:28:07.751Z,93474.75
2022-12-16T03:29:07.766Z,93467.44
2022-12-16T03:30:09.359Z,93460.75
2022-12-16T03:31:40.448Z,93477.34
2022-12-16T03:32:48.950Z,93482.66
2022-12-16T03:33:55.278Z,93476.59
2022-12-16T03:34:56.355Z,93482.34
2022-12-16T03:36:16.594Z,93486.34
2022-12-16T03:37:14.353Z,93486.97
2022-12-16T03:38:12.524Z,93501.88
2022-12-16T03:39:10.088Z,93501.56
2022-12-16T03:40:09.400Z,93514.16
2022-12-16T03:41:07.617Z,93499.06
2022-12-16T03:42:05.834Z,93516.75
2022-12-16T03:43:04.697Z,93513.19
2022-12-16T03:44:02.246Z,93511.22
2022-12-16T03:44:59.089Z,93516.16
2022-12-16T03:46:01.154Z,93513.06
2022-12-16T03:46:58.328Z,93517.75
2022-12-16T03:47:57.977Z,93514.34
2022-12-16T03:48:54.578Z,93510.75
2022-12-16T03:49:51.537Z,93505.50
2022-12-16T03:50:48.226Z,93478.00
2022-12-16T03:51:44.918Z,93498.81
2022-12-16T03:52:41.595Z,93497.66
2022-12-16T03:53:38.277Z,93495.63
2022-12-16T03:54:34.923Z,93496.06
2022-12-16T03:55:32.133Z,93480.38
2022-12-16T03:56:28.794Z,93482.41
2022-12-16T03:57:25.448Z,93505.22
2022-12-16T03:58:22.430Z,93498.72
2022-12-16T03:59:19.161Z,93508.19
2022-12-16T04:00:16.073Z,93506.78
2022-12-16T04:01:13.299Z,93502.78
2022-12-16T04:02:10.425Z,93508.06
2022-12-16T04:03:07.590Z,93513.19
2022-12-16T04:04:04.672Z,93508.97
2022-12-16T04:05:01.582Z,93498.28
2022-12-16T04:05:58.264Z,93479.97
2022-12-16T04:07:13.363Z,93510.53
2022-12-16T04:08:10.176Z,93502.47
2022-12-16T04:09:06.884Z,93482.91
2022-12-16T04:10:04.287Z,93476.53
2022-12-16T04:11:19.427Z,93498.88
2022-12-16T04:12:34.827Z,93501.22
2022-12-16T04:13:49.708Z,93499.97
2022-12-16T04:15:04.821Z,93509.91
2022-12-16T04:16:20.398Z,93514.09
2022-12-16T04:17:36.004Z,93520.00
2022-12-16T04:18:52.004Z,93523.09
2022-12-16T04:20:08.649Z,93518.00
2022-12-16T04:21:24.198Z,93517.06
2022-12-16T04:22:46.185Z,93523.72
2022-12-16T04:24:15.677Z,93515.34
2022-12-16T04:25:19.096Z,93510.25
2022-12-16T04:26:16.224Z,93501.34
2022-12-16T04:27:24.911Z,93497.03
2022-12-16T04:28:21.564Z,93493.47
2022-12-16T04:29:18.323Z,93494.69
2022-12-16T04:30:20.209Z,93510.84
2022-12-16T04:31:17.275Z,93503.13
2022-12-16T04:32:14.053Z,93478.09
2022-12-16T04:33:33.243Z,93505.56
2022-12-16T04:34:30.176Z,93504.94
2022-12-16T04:35:45.360Z,93442.56
2022-12-16T04:37:00.276Z,93486.00
2022-12-16T04:38:15.427Z,93510.22
2022-12-16T04:39:30.794Z,93513.22
2022-12-16T04:40:46.066Z,93513.03
2022-12-16T04:42:01.827Z,93519.88
2022-12-16T04:43:17.135Z,93511.03
2022-12-16T04:44:32.727Z,93501.25
2022-12-16T04:45:48.157Z,93486.06
2022-12-16T04:47:03.304Z,93487.00
2022-12-16T04:48:19.196Z,93513.25
2022-12-16T04:49:34.603Z,93501.25
2022-12-16T04:50:49.505Z,93497.09
2022-12-16T04:52:04.867Z,93506.41
2022-12-16T04:53:19.898Z,93505.16
2022-12-16T04:54:35.095Z,93512.94
2022-12-16T04:55:50.465Z,93516.63
2022-12-16T04:57:05.589Z,93516.16
2022-12-16T04:58:21.685Z,93523.00
2022-12-16T04:59:37.114Z,93524.72
2022-12-16T05:00:52.756Z,93524.88
2022-12-16T05:02:08.414Z,93515.41
2022-12-16T05:03:23.914Z,93506.88
2022-12-16T05:04:38.974Z,93516.19
2022-12-16T05:05:54.466Z,93519.44
2022-12-16T05:07:09.485Z,93519.31
2022-12-16T05:08:24.491Z,93503.94
2022-12-16T05:09:39.622Z,93521.47
2022-12-16T05:10:54.452Z,93525.66
2022-12-16T05:12:10.378Z,93522.72
2022-12-16T05:13:25.208Z,93519.44
2022-12-16T05:14:40.732Z,93519.44
2022-12-16T05:15:56.183Z,93519.13
2022-12-16T05:17:11.418Z,93514.97
2022-12-16T05:18:32.671Z,93521.31
2022-12-16T05:19:47.954Z,93521.16
2022-12-16T05:21:02.945Z,93522.09
2022-12-16T05:22:17.894Z,93519.91
2022-12-16T05:23:33.801Z,93499.72
2022-12-16T05:24:52.878Z,93516.50
2022-12-16T05:26:08.406Z,93501.44
2022-12-16T05:27:23.787Z,93529.09
2022-12-16T05:28:38.663Z,93539.66
2022-12-16T05:29:53.603Z,93538.88
2022-12-16T05:31:09.301Z,93529.88
2022-12-16T05:32:24.240Z,93526.44
2022-12-16T05:33:39.564Z,93536.69
2022-12-16T05:34:55.097Z,93542.44
2022-12-16T05:36:10.427Z,93542.13
2022-12-16T05:37:25.467Z,93543.38
2022-12-16T05:38:40.790Z,93539.31
2022-12-16T05:39:56.063Z,93540.59
2022-12-16T05:41:11.016Z,93540.09
2022-12-16T05:42:26.636Z,93542.75
2022-12-16T05:43:41.537Z,93554.88
2022-12-16T05:44:56.667Z,93553.16
2022-12-16T05:46:11.782Z,93549.13
2022-12-16T05:47:27.527Z,93549.25
2022-12-16T05:48:47.573Z,93558.59
2022-12-16T05:50:02.838Z,93557.06
2022-12-16T05:51:17.967Z,93549.44
2022-12-16T05:52:33.117Z,93545.69
2022-12-16T05:53:48.063Z,93551.63
2022-12-16T05:55:03.103Z,93549.59
2022-12-16T05:56:18.172Z,93546.03
2022-12-16T05:57:33.146Z,93539.31
2022-12-16T05:58:48.855Z,93542.13
2022-12-16T06:00:03.831Z,93543.84
2022-12-16T06:01:18.863Z,93553.31
2022-12-16T06:02:34.197Z,93548.03
2022-12-16T06:04:06.230Z,93549.44
2022-12-16T06:05:21.859Z,93571.81
2022-12-16T06:06:36.985Z,93585.31
2022-12-16T06:07:52.579Z,93507.81
2022-12-16T06:09:07.703Z,93593.09
2022-12-16T06:10:23.045Z,93593.59
2022-12-16T06:11:38.253Z,93591.56
2022-12-16T06:12:53.729Z,93587.34
2022-12-16T06:14:08.586Z,93571.03
2022-12-16T06:15:24.236Z,93581.75
2022-12-16T06:16:39.267Z,93574.47
2022-12-16T06:17:54.753Z,93598.53
2022-12-16T06:19:09.699Z,93584.56
2022-12-16T06:20:25.671Z,93558.94
2022-12-16T06:21:41.074Z,93592.34
2022-12-16T06:22:56.522Z,93610.66
2022-12-16T06:24:16.217Z,93597.13
2022-12-16T06:25:31.304Z,93604.59
2022-12-16T06:26:46.274Z,93586.41
2022-12-16T06:28:01.205Z,93592.63
2022-12-16T06:29:16.263Z,93551.16
2022-12-16T06:30:31.447Z,93562.03
2022-12-16T06:31:46.835Z,93591.41
2022-12-16T06:33:01.744Z,93597.47
2022-12-16T06:34:17.287Z,93601.03
2022-12-16T06:35:32.284Z,93595.44
2022-12-16T06:36:47.312Z,93603.22
2022-12-16T06:38:06.332Z,93576.66
2022-12-16T06:39:21.897Z,93587.34
2022-12-16T06:40:37.094Z,93567.47
2022-12-16T06:41:52.083Z,93591.06
2022-12-16T06:43:07.299Z,93590.91
2022-12-16T06:44:22.722Z,93584.69
2022-12-16T06:45:37.771Z,93572.25
2022-12-16T06:46:52.967Z,93568.88
2022-12-16T06:48:08.035Z,93577.28
2022-12-16T06:49:23.033Z,93577.72
2022-12-16T06:50:42.952Z,93574.91
2022-12-16T06:52:00.006Z,93580.19
2022-12-16T06:53:15.014Z,93568.25
2022-12-16T06:54:29.923Z,93573.66
2022-12-16T06:55:45.419Z,93517.75
2022-12-16T06:57:00.351Z,93589.50
2022-12-16T06:58:19.360Z,93575.22
2022-12-16T06:59:34.228Z,93574.59
2022-12-16T07:00:49.144Z,93588.59
2022-12-16T07:02:04.278Z,93591.69
2022-12-16T07:03:19.680Z,93582.34
2022-12-16T07:04:35.179Z,93586.84
2022-12-16T07:05:50.493Z,93591.53
2022-12-16T07:07:05.976Z,93591.53
2022-12-16T07:08:20.878Z,93592.78
2022-12-16T07:09:36.019Z,93596.81
2022-12-16T07:10:51.341Z,93599.78
2022-12-16T07:12:06.907Z,93595.41
2022-12-16T07:13:23.553Z,93598.53
2022-12-16T07:14:55.244Z,93594.16
2022-12-16T07:16:10.242Z,93592.13
2022-12-16T07:17:25.614Z,93594.28
2022-12-16T07:18:40.511Z,93602.09
2022-12-16T07:19:55.639Z,93598.97
2022-12-16T07:21:10.816Z,93579.38
2022-12-16T07:22:26.357Z,93611.06
2022-12-16T07:23:41.597Z,93591.66
2022-12-16T07:24:56.607Z,93599.09
2022-12-16T07:26:12.235Z,93602.34
2022-12-16T07:27:27.186Z,93619.31
2022-12-16T07:28:42.030Z,93564.31
2022-12-16T07:29:57.194Z,93606.38
2022-12-16T07:31:12.436Z,93610.75
2022-12-16T07:32:27.708Z,93607.00
2022-12-16T07:33:42.797Z,93587.88
2022-12-16T07:34:57.821Z,93573.13
2022-12-16T07:36:12.922Z,93601.81
2022-12-16T07:37:27.766Z,93595.09
2022-12-16T07:38:42.826Z,93617.34
2022-12-16T07:39:58.100Z,93602.25
2022-12-16T07:41:13.563Z,93602.97
2022-12-16T07:42:28.798Z,93605.75
2022-12-16T07:43:44.197Z,93611.03
2022-12-16T07:44:59.059Z,93609.41
2022-12-16T07:46:14.075Z,93611.41
2022-12-16T07:47:29.068Z,93596.41
2022-12-16T07:48:44.062Z,93608.59
2022-12-16T07:49:58.962Z,93582.09
2022-12-16T07:51:13.940Z,93618.91
2022-12-16T07:52:28.875Z,93612.91
2022-12-16T07:53:45.335Z,93619.25
2022-12-16T07:55:00.513Z,93619.66
2022-12-16T07:56:15.985Z,93623.72
2022-12-16T07:57:30.722Z,93626.44
2022-12-16T07:58:46.206Z,93603.72
2022-12-16T08:00:11.853Z,93618.72
2022-12-16T08:01:26.954Z,93617.81
2022-12-16T08:02:42.097Z,93625.06
2022-12-16T08:03:57.536Z,93625.47
2022-12-16T08:05:12.887Z,93626.19
2022-12-16T08:06:28.117Z,93619.69
2022-12-16T08:07:43.533Z,93620.22
2022-12-16T08:08:58.388Z,93617.66
2022-12-16T08:10:13.537Z,93617.16
2022-12-16T08:11:28.820Z,93613.66
2022-12-16T08:12:43.891Z,93619.66
2022-12-16T08:13:59.418Z,93596.06
2022-12-16T08:15:14.624Z,93622.00
2022-12-16T08:16:29.762Z,93636.16
2022-12-16T08:17:44.787Z,93621.81
2022-12-16T08:18:59.849Z,93620.81
2022-12-16T08:20:14.808Z,93589.59
2022-12-16T08:21:29.964Z,93609.34
2022-12-16T08:22:44.876Z,93570.66
2022-12-16T08:23:59.695Z,93616.56
2022-12-16T08:25:15.170Z,93608.06
2022-12-16T08:26:30.594Z,93604.75
2022-12-16T08:27:45.506Z,93608.53
2022-12-16T08:29:26.841Z,93611.94
2022-12-16T08:30:36.110Z,93622.16
2022-12-16T08:31:51.631Z,93617.81
2022-12-16T08:33:16.655Z,93616.91
2022-12-16T08:34:33.954Z,93576.19
2022-12-16T08:35:48.784Z,93607.19
2022-12-16T08:37:04.021Z,93608.41
2022-12-16T08:38:19.316Z,93571.69
2022-12-16T08:39:34.791Z,93593.94
2022-12-16T08:40:50.206Z,93565.94
2022-12-16T08:42:05.583Z,93610.00
2022-12-16T08:43:20.689Z,93608.13
2022-12-16T08:44:36.044Z,93603.22
2022-12-16T08:45:51.536Z,93605.66
2022-12-16T08:47:06.867Z,93604.78
2022-12-16T08:48:22.285Z,93576.44
2022-12-16T08:49:37.467Z,93613.94
2022-12-16T08:50:52.319Z,93589.03
2022-12-16T08:52:07.468Z,93598.44
2022-12-16T08:53:22.646Z,93596.13
2022-12-16T08:54:37.819Z,93591.50
2022-12-16T08:55:55.857Z,93590.81
2022-12-16T08:57:11.104Z,93588.94
2022-12-16T08:58:30.493Z,93600.78
2022-12-16T08:59:45.748Z,93579.16
2022-12-16T09:01:06.677Z,93585.22
2022-12-16T09:02:23.480Z,93580.72
2022-12-16T09:03:38.727Z,93575.13
2022-12-16T09:04:54.228Z,93587.44
2022-12-16T09:06:10.820Z,93551.31
2022-12-16T09:07:26.172Z,93576.31
2022-12-16T09:08:41.326Z,93577.16
2022-12-16T09:09:56.484Z,93575.59
2022-12-16T09:11:12.016Z,93583.56
2022-12-16T09:12:26.966Z,93571.75
2022-12-16T09:13:42.160Z,93573.75
2022-12-16T09:14:57.102Z,93532.41
2022-12-16T09:16:17.380Z,93564.09
2022-12-16T09:17:34.429Z,93578.94
2022-12-16T09:18:49.671Z,93573.72
2022-12-16T09:20:04.726Z,93572.28
2022-12-16T09:21:19.925Z,93577.25
2022-12-16T09:22:35.029Z,93556.13
2022-12-16T09:23:50.231Z,93568.59
2022-12-16T09:25:06.193Z,93548.41
2022-12-16T09:26:21.171Z,93530.81
2022-12-16T09:27:36.568Z,93503.81
2022-12-16T09:28:52.127Z,93527.88
2022-12-16T09:30:07.687Z,93521.44
2022-12-16T09:31:23.296Z,93540.91
2022-12-16T09:32:38.208Z,93509.69
2022-12-16T09:33:53.148Z,93527.69
2022-12-16T09:35:13.344Z,93532.44
2022-12-16T09:36:28.478Z,93529.84
2022-12-16T09:37:43.488Z,93526.25
2022-12-16T09:38:59.178Z,93530.81
2022-12-16T09:40:14.112Z,93516.28
2022-12-16T09:41:50.626Z,93519.56
2022-12-16T09:43:31.047Z,93518.19
2022-12-16T09:45:30.658Z,93534.75
2022-12-16T09:46:54.931Z,93535.00
2022-12-16T09:48:22.585Z,93529.50
2022-12-16T09:50:16.423Z,93524.34
2022-12-16T09:51:32.687Z,93519.34
2022-12-16T09:52:51.736Z,93535.88
2022-12-16T09:54:10.156Z,93530.28
2022-12-16T09:55:52.430Z,93530.59
2022-12-16T09:57:08.075Z,93520.44
2022-12-16T09:58:26.840Z,93520.19
2022-12-16T09:59:50.533Z,93516.13
2022-12-16T10:01:06.293Z,93525.38
2022-12-16T10:02:22.105Z,93507.81
2022-12-16T10:03:41.008Z,93523.53
2022-12-16T10:04:56.430Z,93524.38
2022-12-16T10:06:23.626Z,93541.09
2022-12-16T10:07:39.878Z,93531.38
2022-12-16T10:09:15.999Z,93531.69
2022-12-16T10:10:45.741Z,93531.06
2022-12-16T10:12:14.267Z,93533.88
2022-12-16T10:13:35.661Z,93525.47
2022-12-16T10:15:04.126Z,93524.16
2022-12-16T10:16:32.778Z,93529.88
2022-12-16T10:17:47.906Z,93516.59
2022-12-16T10:19:08.086Z,93518.69
2022-12-16T10:20:54.688Z,93515.78
2022-12-16T10:22:24.375Z,93500.22
2022-12-16T10:24:20.719Z,93500.03
2022-12-16T10:26:12.828Z,93506.59
2022-12-16T10:27:46.113Z,93495.16
2022-12-16T10:29:04.786Z,93496.13
2022-12-16T10:30:21.939Z,93493.94
2022-12-16T10:31:37.077Z,93499.69
2022-12-16T10:33:06.057Z,93488.47
2022-12-16T10:34:29.217Z,93497.19
2022-12-16T10:35:52.617Z,93498.59
2022-12-16T10:37:14.197Z,93482.16
2022-12-16T10:38:42.479Z,93501.53
2022-12-16T10:40:04.564Z,93476.88
2022-12-16T10:41:20.632Z,93494.50
2022-12-16T10:42:46.935Z,93497.31
2022-12-16T10:44:05.652Z,93499.06
2022-12-16T10:45:23.410Z,93504.06
2022-12-16T10:46:44.067Z,93499.59
2022-12-16T10:47:59.559Z,93499.44
2022-12-16T10:49:15.035Z,93501.63
2022-12-16T10:50:34.226Z,93484.75
2022-12-16T10:51:49.069Z,93480.88
2022-12-16T10:53:18.436Z,93473.13
2022-12-16T10:54:39.373Z,93478.94
2022-12-16T10:56:32.690Z,93474.25
2022-12-16T10:57:50.715Z,93482.75
2022-12-16T10:59:13.398Z,93486.47
2022-12-16T11:00:31.920Z,93485.19
2022-12-16T11:01:47.818Z,93487.75
2022-12-16T11:03:03.421Z,93449.63
2022-12-16T11:04:18.722Z,93489.88
2022-12-16T11:05:48.823Z,93487.25
2022-12-16T11:07:03.968Z,93488.34
2022-12-16T11:08:19.360Z,93491.56
2022-12-16T11:09:51.791Z,93487.41
2022-12-16T11:11:07.069Z,93484.47
2022-12-16T11:12:41.282Z,93491.00
2022-12-16T11:13:56.725Z,93493.03
2022-12-16T11:15:28.809Z,93476.72
2022-12-16T11:16:47.529Z,93486.78
2022-12-16T11:18:21.434Z,93490.47
2022-12-16T11:19:39.537Z,93488.03
2022-12-16T11:20:54.981Z,93476.75
2022-12-16T11:22:25.512Z,93473.88
2022-12-16T11:23:43.433Z,93492.19
2022-12-16T11:24:58.635Z,93493.91
2022-12-16T11:26:38.042Z,93482.38
2022-12-16T11:27:53.292Z,93475.22
2022-12-16T11:29:29.128Z,93467.84
2022-12-16T11:30:44.133Z,93475.66
2022-12-16T11:32:13.158Z,93474.19
2022-12-16T11:33:44.669Z,93462.75
2022-12-16T11:35:03.722Z,93466.22
2022-12-16T11:36:40.569Z,93468.13
2022-12-16T11:37:58.595Z,93472.03
2022-12-16T11:39:14.119Z,93474.75
2022-12-16T11:40:36.931Z,93471.78
2022-12-16T11:42:07.724Z,93468.25
2022-12-16T11:43:24.787Z,93477.31
2022-12-16T11:45:07.908Z,93473.53
2022-12-16T11:46:29.465Z,93465.06
2022-12-16T11:48:08.120Z,93462.75
2022-12-16T11:49:32.780Z,93459.19
2022-12-16T11:50:51.928Z,93459.69
2022-12-16T11:52:35.893Z,93457.88
2022-12-16T11:53:56.958Z,93461.84
2022-12-16T11:56:04.456Z,93457.09
2022-12-16T11:57:14.603Z,93457.47
2022-12-16T11:58:48.983Z,93456.84
2022-12-16T12:00:09.585Z,93449.97
2022-12-16T12:01:45.013Z,93454.75
2022-12-16T12:03:08.438Z,93432.91
2022-12-16T12:04:24.154Z,93449.63
2022-12-16T12:05:51.720Z,93368.41
2022-12-16T12:07:29.869Z,93447.41
2022-12-16T12:09:17.298Z,93451.94
2022-12-16T12:11:03.987Z,93456.28
2022-12-16T12:12:19.247Z,93445.47
2022-12-16T12:13:47.125Z,93440.13
2022-12-16T12:15:09.498Z,93446.31
2022-12-16T12:16:33.567Z,93455.97
2022-12-16T12:18:03.019Z,93457.03
2022-12-16T12:19:29.088Z,93456.53
2022-12-16T12:20:47.999Z,93459.72
2022-12-16T12:22:19.960Z,93428.63
2022-12-16T12:23:48.848Z,93447.41
2022-12-16T12:25:29.339Z,93442.81
2022-12-16T12:26:50.735Z,93443.88
2022-12-16T12:28:06.245Z,93444.19
2022-12-16T12:30:10.352Z,93446.28
2022-12-16T12:31:45.695Z,93450.81
2022-12-16T12:33:10.089Z,93446.63
2022-12-16T12:34:40.861Z,93411.66
2022-12-16T12:36:08.159Z,93452.78
2022-12-16T12:37:36.410Z,93433.31
2022-12-16T12:39:00.133Z,93427.94
2022-12-16T12:40:22.258Z,93434.06
2022-12-16T12:41:45.699Z,93432.09
2022-12-16T12:43:13.791Z,93430.97
2022-12-16T12:44:48.736Z,93443.63
2022-12-16T12:46:16.908Z,93441.25
2022-12-16T12:47:32.210Z,93434.59
2022-12-16T12:49:17.445Z,93447.78
2022-12-16T12:50:40.607Z,93434.66
2022-12-16T12:52:15.380Z,93443.22
2022-12-16T12:54:03.111Z,93448.56
2022-12-16T12:55:47.423Z,93446.25
2022-12-16T12:57:09.985Z,93441.63
2022-12-16T12:58:26.063Z,93434.38
2022-12-16T12:59:46.610Z,93433.25
2022-12-16T13:01:07.476Z,93432.13
2022-12-16T13:02:28.573Z,93427.53
2022-12-16T13:04:02.774Z,93416.38
2022-12-16T13:05:24.234Z,93407.88
2022-12-16T13:06:41.478Z,93420.28
2022-12-16T13:07:56.826Z,93407.69
2022-12-16T13:09:17.152Z,93411.06
2022-12-16T13:10:44.647Z,93418.75
2022-12-16T13:12:26.080Z,93425.09
2022-12-16T13:13:44.130Z,93429.13
2022-12-16T13:15:08.364Z,93430.34
2022-12-16T13:16:31.160Z,93427.97
2022-12-16T13:17:46.737Z,93423.38
2022-12-16T13:19:05.304Z,93421.81
2022-12-16T13:20:45.110Z,93431.81
2022-12-16T13:22:01.360Z,93437.91
2022-12-16T13:23:16.888Z,93414.16
2022-12-16T13:24:59.131Z,93432.56
2022-12-16T13:26:23.128Z,93434.00
2022-12-16T13:27:38.985Z,93441.22
2022-12-16T13:28:57.604Z,93430.47
2022-12-16T13:30:30.861Z,93428.03
2022-12-16T13:31:48.907Z,93374.69
2022-12-16T13:33:13.506Z,93374.00
2022-12-16T13:34:34.357Z,93433.16
2022-12-16T13:35:49.998Z,93437.22
2022-12-16T13:37:12.372Z,93311.34
2022-12-16T13:38:40.317Z,93423.66
2022-12-16T13:39:56.736Z,93432.03
2022-12-16T13:41:21.347Z,93436.94
2022-12-16T13:42:53.137Z,93444.88
2022-12-16T13:44:12.150Z,93445.47
2022-12-16T13:46:03.655Z,93433.84
2022-12-16T13:47:19.140Z,93453.31
2022-12-16T13:49:06.565Z,93449.75
2022-12-16T13:50:53.418Z,93448.91
2022-12-16T13:52:18.930Z,93444.28
2022-12-16T13:53:36.366Z,93443.53
2022-12-16T13:55:04.357Z,93453.75
2022-12-16T13:56:20.297Z,93417.94
2022-12-16T13:57:39.232Z,93427.13
2022-12-16T13:59:00.213Z,93450.72
2022-12-16T14:00:18.198Z,93464.00
2022-12-16T14:01:37.896Z,93463.88
2022-12-16T14:02:58.975Z,93440.72
2022-12-16T14:04:15.478Z,93442.94
2022-12-16T14:05:38.564Z,93456.44
2022-12-16T14:06:57.102Z,93458.25
2022-12-16T14:08:12.685Z,93452.91
2022-12-16T14:09:43.595Z,93431.31
2022-12-16T14:11:01.248Z,93476.03
2022-12-16T14:12:21.941Z,93465.47
2022-12-16T14:14:04.830Z,93468.03
2022-12-16T14:15:44.792Z,93470.97
2022-12-16T14:17:02.971Z,93463.94
2022-12-16T14:18:30.596Z,93467.81
2022-12-16T14:20:07.609Z,93474.72
2022-12-16T14:21:23.585Z,93479.19